Time;durP1;ratioP1;P1;durP2;ratioP2;P2;SDS_P1;SDS_P2;PMS_P1;PMS_P2;Temp;Humidity;BMP_temperature;BMP_pressure;BME280_temperature;BME280_humidity;BME280_pressure;Samples;Min_cycle;Max_cycle;Signal;HPM_P1;HPM_P2
2022/11/15 00:01:00;;;;;;;6.10;2.60;;;;;;;1.69;81.54;96098.86;1659741;86;21484;-70
2022/11/15 00:03:46;;;;;;;7.73;5.17;;;;;;;1.56;82.08;96099.80;1659713;86;21112;-70
2022/11/15 00:06:32;;;;;;;7.33;3.90;;;;;;;1.50;82.04;96107.92;1659807;86;21045;-70
2022/11/15 00:09:17;;;;;;;4.53;2.70;;;;;;;1.42;82.19;96102.09;1659509;86;21062;-70
2022/11/15 00:12:02;;;;;;;3.57;2.13;;;;;;;1.47;82.71;96102.65;1660002;86;21041;-69
2022/11/15 00:14:47;;;;;;;4.83;2.37;;;;;;;1.45;83.00;96094.35;1659597;86;21077;-70
2022/11/15 00:17:32;;;;;;;5.63;2.90;;;;;;;1.43;82.81;96086.50;1660042;86;20981;-70
2022/11/15 00:20:18;;;;;;;3.70;2.30;;;;;;;1.49;83.06;96089.70;1659801;86;21025;-70
2022/11/15 00:23:06;;;;;;;4.83;2.00;;;;;;;1.60;83.18;96087.34;1659723;86;21041;-70
2022/11/15 00:25:58;;;;;;;3.67;2.20;;;;;;;1.50;82.60;96084.52;1659715;86;21515;-70
2022/11/15 00:28:43;;;;;;;2.70;2.17;;;;;;;1.37;82.40;96079.00;1659849;86;21041;-70
2022/11/15 00:31:28;;;;;;;4.27;2.60;;;;;;;1.33;83.44;96080.63;1659676;86;21154;-70
2022/11/15 00:34:14;;;;;;;6.03;2.73;;;;;;;1.40;83.83;96077.33;1659882;86;21045;-70
2022/11/15 00:36:58;;;;;;;4.63;2.90;;;;;;;1.48;83.54;96069.29;1659784;86;21025;-70
2022/11/15 00:39:44;;;;;;;3.97;2.57;;;;;;;1.51;83.25;96076.28;1659846;86;21053;-70
2022/11/15 00:42:29;;;;;;;5.33;2.57;;;;;;;1.51;82.90;96069.78;1659604;86;21033;-70
2022/11/15 00:45:14;;;;;;;3.97;1.97;;;;;;;1.55;82.95;96067.73;1659777;86;21105;-70
2022/11/15 00:47:59;;;;;;;5.07;2.23;;;;;;;1.55;82.69;96066.86;1659782;86;21093;-70
2022/11/15 00:50:45;;;;;;;4.00;2.37;;;;;;;1.51;82.73;96067.19;1659733;86;21037;-70
2022/11/15 00:53:30;;;;;;;3.23;1.83;;;;;;;1.48;82.86;96062.79;1659396;86;21136;-71
2022/11/15 00:56:15;;;;;;;3.23;2.03;;;;;;;1.47;83.14;96059.74;1659875;86;21562;-70
2022/11/15 00:59:01;;;;;;;3.50;2.45;;;;;;;1.48;83.16;96053.69;1645541;86;28423;-70
2022/11/15 01:01:47;;;;;;;4.20;2.90;;;;;;;1.64;83.38;96051.05;1659684;86;21133;-70
2022/11/15 01:04:32;;;;;;;4.57;2.50;;;;;;;1.60;83.23;96054.84;1659709;86;21467;-70
2022/11/15 01:07:17;;;;;;;4.33;2.90;;;;;;;1.59;83.22;96049.16;1659591;86;21615;-70
2022/11/15 01:10:04;;;;;;;4.20;2.40;;;;;;;1.59;83.36;96046.16;1659475;86;21101;-70
2022/11/15 01:12:50;;;;;;;4.30;2.80;;;;;;;1.62;82.84;96047.95;1659843;86;21057;-70
2022/11/15 01:15:39;;;;;;;4.80;3.20;;;;;;;1.57;82.98;96043.94;1659860;86;21085;-70
2022/11/15 01:18:25;;;;;;;3.80;2.33;;;;;;;1.57;83.00;96036.14;1659763;86;21057;-70
2022/11/15 01:21:14;;;;;;;3.20;2.03;;;;;;;1.54;82.64;96031.27;1659556;86;21104;-70
2022/11/15 01:23:59;;;;;;;7.03;3.33;;;;;;;1.39;82.12;96028.79;1659562;86;21484;-70
2022/11/15 01:26:44;;;;;;;3.57;2.40;;;;;;;1.27;82.26;96029.80;1659470;86;21631;-70
2022/11/15 01:29:29;;;;;;;4.20;2.40;;;;;;;1.23;82.50;96027.52;1659750;86;21073;-71
2022/11/15 01:32:14;;;;;;;5.30;2.13;;;;;;;1.19;82.47;96029.61;1659555;86;21097;-70
2022/11/15 01:35:00;;;;;;;3.10;2.10;;;;;;;1.16;82.88;96026.03;1659678;86;21152;-70
2022/11/15 01:37:45;;;;;;;3.93;2.03;;;;;;;1.23;83.48;96026.65;1659571;86;21108;-70
2022/11/15 01:40:30;;;;;;;2.40;1.90;;;;;;;1.26;83.58;96026.72;1659449;86;21041;-70
2022/11/15 01:43:28;;;;;;;2.83;2.03;;;;;;;1.32;83.62;96023.41;1659837;86;20998;-70
2022/11/15 01:46:33;;;;;;;2.43;1.70;;;;;;;1.35;83.50;96017.84;1644077;86;21059;-70
2022/11/15 01:49:21;;;;;;;2.93;1.97;;;;;;;1.33;83.04;96019.52;1634161;88;21111;-70
2022/11/15 01:52:11;;;;;;;4.33;2.37;;;;;;;1.24;82.57;96017.60;1612648;88;21117;-70
2022/11/15 01:55:19;;;;;;;5.33;2.40;;;;;;;1.20;83.43;96014.45;1634217;88;21084;-70
2022/11/15 01:58:05;;;;;;;4.93;3.03;;;;;;;1.21;83.92;96014.94;1634368;88;21063;-70
2022/11/15 02:00:52;;;;;;;4.47;2.40;;;;;;;1.15;83.29;96006.97;1634073;88;21055;-70
2022/11/15 02:03:49;;;;;;;3.87;2.10;;;;;;;1.11;83.25;96012.95;1634470;88;21028;-70
2022/11/15 02:06:36;;;;;;;2.90;2.03;;;;;;;1.19;83.67;96007.52;1634458;87;21106;-71
2022/11/15 02:09:21;;;;;;;3.43;2.30;;;;;;;1.34;84.28;96009.60;1634241;88;21048;-70
2022/11/15 02:12:08;;;;;;;3.93;2.90;;;;;;;1.29;82.94;95997.79;1634774;88;21099;-70
2022/11/15 02:14:55;;;;;;;3.80;2.53;;;;;;;1.14;82.72;96001.76;1634521;88;21020;-70
2022/11/15 02:18:04;;;;;;;4.67;2.17;;;;;;;1.11;83.17;96001.27;1634273;88;21538;-70
2022/11/15 02:21:24;;;;;;;3.00;1.97;;;;;;;1.12;83.29;95999.11;1634204;88;21095;-70
2022/11/15 02:24:55;;;;;;;3.43;2.10;;;;;;;1.07;82.79;95994.22;1634017;88;21032;-70
2022/11/15 02:28:08;;;;;;;2.03;1.63;;;;;;;0.89;82.30;95993.78;1634587;87;21084;-70
2022/11/15 02:31:40;;;;;;;3.53;2.00;;;;;;;0.74;83.06;95994.27;1634369;88;21036;-69
2022/11/15 02:34:38;;;;;;;3.43;2.07;;;;;;;0.63;83.64;95999.16;1614650;89;21616;-70
2022/11/15 02:37:49;;;;;;;2.80;2.00;;;;;;;0.60;84.29;95999.08;1614450;89;21097;-70
2022/11/15 02:41:05;;;;;;;3.87;2.20;;;;;;;0.65;84.75;96006.58;1633996;88;21099;-69
2022/11/15 02:44:17;;;;;;;4.13;2.20;;;;;;;0.64;84.64;95995.74;1634368;88;21080;-70
2022/11/15 02:47:14;;;;;;;4.37;2.50;;;;;;;0.73;84.92;95990.80;1634448;86;21123;-70
2022/11/15 02:50:08;;;;;;;3.20;2.07;;;;;;;0.88;85.12;95987.67;1613932;88;21044;-70
2022/11/15 02:52:54;;;;;;;2.95;2.02;;;;;;;0.91;84.57;95986.88;1634576;88;21059;-70
2022/11/15 02:55:47;;;;;;;3.40;2.00;;;;;;;0.95;84.55;95990.02;1634202;88;21415;-72
2022/11/15 02:58:52;;;;;;;3.03;2.00;;;;;;;1.08;85.20;95994.27;1612984;88;21031;-70
2022/11/15 03:01:49;;;;;;;7.23;3.97;;;;;;;1.15;84.47;95986.61;1635303;87;21107;-70
2022/11/15 03:05:04;;;;;;;4.53;2.67;;;;;;;1.03;83.24;95991.98;1634411;88;21032;-70
2022/11/15 03:08:10;;;;;;;3.63;2.13;;;;;;;1.07;83.90;95992.49;1634340;88;21088;-70
2022/11/15 03:11:14;;;;;;;4.03;2.60;;;;;;;1.15;84.11;95988.78;1634376;87;21047;-71
2022/11/15 03:14:17;;;;;;;3.37;2.20;;;;;;;1.05;83.88;95983.77;1634405;88;21135;-70
2022/11/15 03:17:24;;;;;;;8.00;3.63;;;;;;;1.00;83.46;95981.48;1634459;88;21728;-70
2022/11/15 03:20:14;;;;;;;3.17;2.13;;;;;;;0.89;83.40;95982.09;1634349;88;21088;-70
2022/11/15 03:23:06;;;;;;;3.10;2.20;;;;;;;0.77;83.42;95983.95;1634563;88;21012;-70
2022/11/15 03:25:53;;;;;;;2.67;1.77;;;;;;;0.79;83.79;95984.44;1630657;88;21037;-70
2022/11/15 03:28:49;;;;;;;2.53;2.00;;;;;;;0.82;84.18;95979.74;1634750;88;21084;-70
2022/11/15 03:31:47;;;;;;;4.47;2.60;;;;;;;0.73;84.15;95968.72;1634434;88;21124;-70
2022/11/15 03:34:59;;;;;;;3.70;2.50;;;;;;;0.74;84.30;95970.46;1634736;88;21059;-70
2022/11/15 03:38:11;;;;;;;3.07;2.00;;;;;;;0.76;84.21;95964.89;1634508;88;21108;-70
2022/11/15 03:41:00;;;;;;;3.00;2.00;;;;;;;0.83;84.30;95966.80;1634385;88;21510;-70
2022/11/15 03:44:07;;;;;;;4.60;2.97;;;;;;;0.81;83.99;95964.58;1634417;88;21088;-70
2022/11/15 03:47:13;;;;;;;3.10;2.10;;;;;;;0.71;83.88;95960.00;1649860;86;21584;-70
2022/11/15 03:50:14;;;;;;;2.60;1.90;;;;;;;0.76;84.63;95960.13;1659784;86;21093;-70
2022/11/15 03:53:00;;;;;;;2.70;1.90;;;;;;;0.92;85.15;95950.55;1659822;86;21041;-70
2022/11/15 03:55:45;;;;;;;2.80;1.60;;;;;;;1.01;84.42;95953.37;1659704;86;21069;-70
2022/11/15 03:58:30;;;;;;;1.60;1.47;;;;;;;0.96;83.88;95949.80;1659924;86;21496;-70
2022/11/15 04:01:15;;;;;;;4.87;2.63;;;;;;;0.85;84.00;95953.84;1659785;86;21069;-70
2022/11/15 04:04:00;;;;;;;3.40;2.47;;;;;;;0.79;84.10;95945.91;1659930;86;21014;-70
2022/11/15 04:06:45;;;;;;;3.03;2.30;;;;;;;0.78;84.63;95945.43;1659587;86;21491;-70
2022/11/15 04:09:30;;;;;;;7.90;2.87;;;;;;;0.85;84.88;95949.94;1659677;86;21067;-70
2022/11/15 04:12:30;;;;;;;6.03;3.70;;;;;;;0.78;83.83;95941.53;1659776;86;21052;-70
2022/11/15 04:15:07;;;;;;;2.50;2.00;;;;;;;0.68;84.27;95944.74;1659924;86;21424;-70
2022/11/15 04:17:56;;;;;;;3.33;2.33;;;;;;;0.66;83.98;95938.66;1659783;86;21089;-70
2022/11/15 04:26:41;;;;;;;7.20;3.47;;;;;;;0.61;84.59;95942.44;1659843;86;20106;-70
2022/11/15 04:29:35;;;;;;;15.37;8.47;;;;;;;0.64;84.74;95942.51;1659700;86;21045;-70
2022/11/15 04:32:21;;;;;;;;;;;;;;;0.59;84.25;95940.22;1662442;86;21104;-71
2022/11/15 04:35:07;;;;;;;3.50;2.33;;;;;;;0.58;84.65;95947.13;1659991;86;20105;-70
2022/11/15 04:37:52;;;;;;;4.40;2.87;;;;;;;0.66;85.23;95941.26;1659697;86;21037;-71
2022/11/15 04:40:38;;;;;;;3.60;1.77;;;;;;;0.76;85.55;95936.32;1659677;86;20997;-71
2022/11/15 04:43:23;;;;;;;3.17;2.40;;;;;;;0.86;84.97;95939.59;1659697;86;21603;-70
2022/11/15 04:46:08;;;;;;;4.77;2.70;;;;;;;0.75;83.97;95944.94;1654943;86;21020;-71
2022/11/15 04:48:54;;;;;;;2.73;1.70;;;;;;;0.69;83.98;95942.20;1634188;88;21106;-71
2022/11/15 04:51:40;;;;;;;3.07;1.90;;;;;;;0.68;84.35;95933.97;1634300;88;21048;-70
2022/11/15 04:54:25;;;;;;;2.53;1.70;;;;;;;0.61;84.38;95937.24;1634299;88;21055;-70
2022/11/15 04:57:10;;;;;;;3.33;1.80;;;;;;;0.69;85.10;95939.61;1634247;88;21059;-74
2022/11/15 04:59:55;;;;;;;3.07;2.17;;;;;;;0.66;84.81;95938.66;1634176;88;21055;-75
2022/11/15 05:05:44;;;;;;;3.07;2.40;;;;;;;0.68;84.93;95927.47;1634284;88;21013;-74
2022/11/15 05:08:29;;;;;;;3.20;1.90;;;;;;;0.64;84.57;95929.52;1634373;88;21099;-74
2022/11/15 05:11:14;;;;;;;3.70;2.00;;;;;;;0.55;84.35;95930.58;1634089;87;21085;-74
2022/11/15 05:14:00;;;;;;;5.63;3.43;;;;;;;0.48;84.55;95930.86;1634273;87;21514;-74
2022/11/15 05:16:45;;;;;;;4.30;2.50;;;;;;;0.53;85.14;95937.05;1634224;88;21096;-74
2022/11/15 05:19:30;;;;;;;2.97;2.23;;;;;;;0.61;85.33;95932.92;1634304;88;21565;-74
2022/11/15 05:22:16;;;;;;;4.40;2.70;;;;;;;0.63;84.94;95927.35;1634268;88;21549;-73
2022/11/15 05:25:01;;;;;;;4.17;2.53;;;;;;;0.67;85.08;95926.13;1634070;88;21052;-74
2022/11/15 05:27:46;;;;;;;3.90;2.43;;;;;;;0.61;84.47;95926.86;1634495;87;21502;-73
2022/11/15 05:30:31;;;;;;;4.30;2.87;;;;;;;0.61;84.58;95923.83;1634192;88;21063;-73
2022/11/15 05:33:17;;;;;;;10.83;3.77;;;;;;;0.59;84.40;95930.70;1634556;87;21055;-73
2022/11/15 05:36:39;;;;;;;19.47;10.37;;;;;;;0.54;84.51;95934.90;1634275;88;21012;-73
2022/11/15 05:39:25;;;;;;;15.90;9.57;;;;;;;0.56;85.23;95937.55;1634474;88;21055;-73
2022/11/15 05:42:14;;;;;;;5.80;3.60;;;;;;;0.64;85.46;95938.61;1634080;88;21104;-73
2022/11/15 05:45:02;;;;;;;5.57;2.13;;;;;;;0.77;85.77;95941.96;1634563;88;21047;-73
2022/11/15 05:47:49;;;;;;;2.67;1.83;;;;;;;0.85;85.36;95943.02;1634186;85;21063;-73
2022/11/15 05:50:36;;;;;;;13.43;9.30;;;;;;;0.87;84.83;95943.06;1634930;87;21032;-73
2022/11/15 05:53:24;;;;;;;2.73;2.17;;;;;;;0.77;84.36;95938.06;1634279;88;21067;-74
2022/11/15 05:56:10;;;;;;;5.67;2.00;;;;;;;0.72;84.57;95933.17;1633388;88;21095;-72
2022/11/15 05:58:57;;;;;;;26.73;17.73;;;;;;;0.81;85.39;95934.72;1633352;88;21055;-70
2022/11/15 06:01:42;;;;;;;15.10;10.80;;;;;;;0.83;85.12;95936.03;1633177;88;21126;-77
2022/11/15 06:04:27;;;;;;;10.23;7.50;;;;;;;0.85;84.74;95941.72;1633551;88;21110;-72
2022/11/15 06:07:12;;;;;;;7.77;4.57;;;;;;;0.84;84.97;95936.08;1633795;88;21219;-72
2022/11/15 06:09:57;;;;;;;7.00;2.30;;;;;;;0.94;85.50;95935.88;1634261;88;21148;-75
2022/11/15 06:12:42;;;;;;;3.77;2.43;;;;;;;1.07;85.29;95935.32;1633869;88;21169;-74
2022/11/15 06:15:28;;;;;;;3.40;2.00;;;;;;;1.17;85.52;95935.12;1633565;88;21055;-77
2022/11/15 06:18:13;;;;;;;6.40;2.77;;;;;;;1.19;84.47;95936.47;1611997;88;21088;-70
2022/11/15 06:21:00;;;;;;;16.77;8.83;;;;;;;1.09;84.04;95939.27;1634015;88;21134;-68
2022/11/15 06:23:44;;;;;;;13.47;8.20;;;;;;;1.05;84.25;95933.10;1633383;87;21094;-77
2022/11/15 06:26:29;;;;;;;7.83;5.33;;;;;;;1.08;84.26;95936.19;1633116;87;21127;-82
2022/11/15 06:29:14;;;;;;;3.60;2.30;;;;;;;1.09;84.83;95926.27;1633413;88;21123;-79
2022/11/15 06:31:59;;;;;;;8.37;3.20;;;;;;;1.17;85.45;95926.02;1634003;87;21058;-72
2022/11/15 06:34:44;;;;;;;4.33;2.93;;;;;;;1.32;85.23;95920.72;1633425;88;22257;-79
2022/11/15 06:37:29;;;;;;;2.63;1.83;;;;;;;1.44;85.10;95919.27;1632979;88;21605;-74
2022/11/15 06:40:15;;;;;;;9.80;5.80;;;;;;;1.55;84.93;95918.62;1633216;87;21086;-76
2022/11/15 06:43:01;;;;;;;19.27;12.77;;;;;;;1.59;84.51;95917.81;1634289;88;21168;-74
2022/11/15 06:45:46;;;;;;;7.83;3.93;;;;;;;1.59;84.56;95917.42;1634563;88;21542;-82
2022/11/15 06:48:33;;;;;;;3.23;2.13;;;;;;;1.61;84.50;95918.30;1633516;85;21075;-77
2022/11/15 06:51:19;;;;;;;3.63;2.10;;;;;;;1.70;85.36;95918.50;1633637;88;21094;-75
2022/11/15 06:54:04;;;;;;;3.30;2.37;;;;;;;1.81;84.92;95912.64;1633118;88;21114;-81
2022/11/15 06:56:49;;;;;;;6.53;3.73;;;;;;;1.96;85.41;95907.74;1634147;88;21554;-75
2022/11/15 06:59:34;;;;;;;5.63;2.20;;;;;;;2.00;84.69;95908.27;1634474;88;21071;-76
2022/11/15 07:02:19;;;;;;;3.50;2.23;;;;;;;2.03;84.77;95898.34;1633611;88;21131;-76
2022/11/15 07:05:05;;;;;;;4.40;3.10;;;;;;;2.15;85.22;95907.25;1632591;88;21159;-67
2022/11/15 07:07:55;;;;;;;6.37;4.00;;;;;;;2.15;84.58;95905.08;1634271;88;21075;-76
2022/11/15 07:10:40;;;;;;;9.93;6.17;;;;;;;2.20;85.09;95903.44;1633762;88;21606;-76
2022/11/15 07:13:26;;;;;;;7.70;4.60;;;;;;;2.40;85.95;95908.14;1633482;88;21112;-70
2022/11/15 07:16:12;;;;;;;7.43;4.40;;;;;;;2.58;86.03;95898.03;1633218;88;21147;-72
2022/11/15 07:18:57;;;;;;;9.57;6.47;;;;;;;2.72;85.25;95893.95;1634100;87;21090;-77
2022/11/15 07:21:42;;;;;;;10.00;6.83;;;;;;;2.76;85.05;95897.46;1633759;88;21071;-76
2022/11/15 07:24:27;;;;;;;13.33;8.93;;;;;;;2.89;85.42;95895.49;1633850;88;21608;-73
2022/11/15 07:27:12;;;;;;;18.13;9.40;;;;;;;3.10;85.57;95890.16;1632346;88;21095;-73
2022/11/15 07:29:58;;;;;;;9.93;6.33;;;;;;;3.28;85.31;95893.48;1633646;88;21111;-73
2022/11/15 07:32:43;;;;;;;10.87;7.37;;;;;;;3.42;85.05;95891.93;1632997;88;21127;-78
2022/11/15 07:35:29;;;;;;;12.73;8.07;;;;;;;3.50;84.61;95888.12;1633209;88;21051;-74
2022/11/15 07:38:15;;;;;;;13.00;9.03;;;;;;;3.54;84.46;95888.62;1632714;88;21103;-73
2022/11/15 07:41:03;;;;;;;11.87;8.00;;;;;;;3.64;84.77;95873.53;1633451;88;21140;-76
2022/11/15 07:43:53;;;;;;;16.13;9.33;;;;;;;3.81;84.63;95877.23;1633665;88;21286;-76
2022/11/15 07:46:38;;;;;;;16.03;9.13;;;;;;;3.92;84.97;95862.98;1633946;86;21021;-76
2022/11/15 07:49:23;;;;;;;12.97;8.43;;;;;;;4.07;84.93;95851.41;1633447;88;21158;-73
2022/11/15 07:52:08;;;;;;;18.33;9.23;;;;;;;4.24;84.75;95854.20;1633637;87;21154;-75
2022/11/15 07:54:53;;;;;;;12.47;8.03;;;;;;;4.34;84.09;95859.09;1633854;88;21114;-74
2022/11/15 07:57:38;;;;;;;15.17;9.20;;;;;;;4.43;83.94;95852.63;1632479;88;21110;-79
2022/11/15 08:00:23;;;;;;;13.07;8.70;;;;;;;4.53;84.17;95847.05;1633713;88;21059;-83
2022/11/15 08:03:13;;;;;;;16.00;9.67;;;;;;;4.69;84.08;95834.58;1633694;88;21095;-79
2022/11/15 08:05:59;;;;;;;19.30;9.13;;;;;;;4.77;83.46;95840.73;1633103;88;21058;-71
2022/11/15 08:08:44;;;;;;;14.17;9.63;;;;;;;4.90;83.53;95832.98;1633889;88;21032;-71
2022/11/15 08:11:29;;;;;;;18.00;10.57;;;;;;;5.07;83.86;95832.67;1612344;88;21016;-75
2022/11/15 08:14:14;;;;;;;15.47;10.30;;;;;;;5.27;83.91;95821.02;1633329;88;21130;-76
2022/11/15 08:17:00;;;;;;;14.37;9.37;;;;;;;5.47;83.80;95820.22;1634050;88;21051;-75
2022/11/15 08:19:45;;;;;;;14.73;8.80;;;;;;;5.66;83.57;95825.13;1633649;88;21047;-71
2022/11/15 08:22:30;;;;;;;17.60;8.97;;;;;;;5.83;83.53;95812.97;1634039;88;21020;-75
2022/11/15 08:25:16;;;;;;;15.07;8.23;;;;;;;6.06;83.29;95819.61;1633397;88;21103;-70
2022/11/15 08:28:05;;;;;;;15.80;8.37;;;;;;;6.25;83.01;95816.61;1633593;88;21135;-85
2022/11/15 08:30:50;;;;;;;19.93;9.40;;;;;;;6.48;82.64;95812.70;1633188;86;21007;-82
2022/11/15 08:33:35;;;;;;;17.87;9.50;;;;;;;6.54;81.17;95813.14;1634269;88;21144;-82
2022/11/15 08:36:21;;;;;;;18.17;10.87;;;;;;;6.66;81.98;95803.97;1634531;88;21667;-84
2022/11/15 08:39:06;;;;;;;20.63;11.87;;;;;;;6.89;82.33;95806.12;1634840;88;21528;-70
2022/11/15 08:41:51;;;;;;;18.87;12.67;;;;;;;7.20;80.87;95803.90;1634631;86;21113;-82
2022/11/15 08:44:36;;;;;;;20.57;13.13;;;;;;;7.43;80.84;95804.70;1633056;86;21018;-83
2022/11/15 08:47:21;;;;;;;14.30;9.23;;;;;;;7.50;79.77;95802.50;1640673;85;21081;-76
2022/11/15 08:50:08;;;;;;;15.13;9.67;;;;;;;7.66;79.13;95794.14;1658797;86;21025;-80
2022/11/15 08:52:54;;;;;;;8.93;6.20;;;;;;;7.80;79.56;95792.76;1660730;85;21528;-79
2022/11/15 08:55:40;;;;;;;6.93;5.10;;;;;;;8.03;79.79;95793.95;1684770;85;21058;-77
2022/11/15 08:58:25;;;;;;;13.37;5.40;;;;;;;8.24;79.19;95785.95;1682641;85;21527;-77
2022/11/15 09:01:19;;;;;;;9.67;6.73;;;;;;;8.41;77.36;95781.91;1677026;85;20998;-72
2022/11/15 09:04:04;;;;;;;8.13;5.73;;;;;;;8.58;77.54;95779.16;1670605;85;21060;-73
2022/11/15 09:06:50;;;;;;;7.30;5.33;;;;;;;8.74;77.68;95772.45;1685016;85;21066;-75
2022/11/15 09:09:34;;;;;;;6.33;4.60;;;;;;;8.90;77.30;95762.69;1684220;85;21214;-72
2022/11/15 09:12:19;;;;;;;7.97;6.50;;;;;;;9.08;77.02;95754.59;1684255;85;21429;-71
2022/11/15 09:15:07;;;;;;;10.70;5.60;;;;;;;9.21;76.08;95752.70;1684498;85;21539;-72
2022/11/15 09:17:52;;;;;;;13.10;6.70;;;;;;;9.30;75.29;95751.30;1684374;85;21125;-68
2022/11/15 09:20:39;;;;;;;7.37;5.07;;;;;;;9.43;74.65;95754.22;1658158;85;21061;-68
2022/11/15 09:23:27;;;;;;;10.87;5.13;;;;;;;9.62;73.72;95748.72;1657426;86;21587;-67
2022/11/15 09:26:13;;;;;;;7.03;5.30;;;;;;;9.82;73.41;95746.69;1674067;85;21543;-78
2022/11/15 09:28:58;;;;;;;11.50;7.37;;;;;;;10.02;71.26;95737.20;1657857;86;21567;-68
2022/11/15 09:31:43;;;;;;;8.53;6.53;;;;;;;10.17;71.70;95739.61;1658661;86;21585;-67
2022/11/15 09:34:28;;;;;;;8.73;6.25;;;;;;;10.34;69.72;95738.53;1658701;86;21078;-66
2022/11/15 09:37:13;;;;;;;9.03;6.10;;;;;;;10.48;70.11;95735.25;1657718;86;21090;-67
2022/11/15 09:39:59;;;;;;;7.47;6.10;;;;;;;10.63;69.94;95725.31;1657832;86;21034;-64
2022/11/15 09:43:06;;;;;;;9.13;6.53;;;;;;;10.76;68.80;95717.60;1658138;86;21621;-68
2022/11/15 09:46:17;;;;;;;10.30;6.72;;;;;;;10.92;69.24;95719.09;1658708;86;21117;-66
2022/11/15 09:49:04;;;;;;;10.00;7.60;;;;;;;11.19;66.26;95713.76;1648331;86;21026;-65
2022/11/15 09:51:46;;;;;;;9.40;7.67;;;;;;;11.72;67.52;95703.44;1635538;86;21046;-64
2022/11/15 09:54:17;;;;;;;9.73;7.42;;;;;;;12.23;66.46;95706.74;1643277;86;21105;-69
2022/11/15 09:56:45;;;;;;;11.03;7.78;;;;;;;12.64;65.37;95692.95;1651383;86;21097;-67
2022/11/15 09:59:39;;;;;;;11.95;6.60;;;;;;;13.08;61.19;95697.58;1644575;87;21141;-66
2022/11/15 10:02:25;;;;;;;9.20;6.62;;;;;;;13.40;60.12;95694.05;1645091;87;21599;-67
2022/11/15 10:04:54;;;;;;;9.50;6.67;;;;;;;13.84;58.96;95690.59;1644658;87;21588;-66
2022/11/15 10:07:29;;;;;;;17.25;12.63;;;;;;;14.27;58.78;95682.64;1645533;87;21089;-68
2022/11/15 10:10:01;;;;;;;40.12;24.12;;;;;;;14.62;54.32;95670.05;1644527;87;21117;-65
2022/11/15 10:12:29;;;;;;;30.77;19.77;;;;;;;14.93;54.16;95669.00;1645834;87;21030;-66
2022/11/15 10:15:01;;;;;;;18.87;11.15;;;;;;;15.36;54.44;95667.48;1645203;87;21081;-66
2022/11/15 10:17:36;;;;;;;17.45;10.45;;;;;;;15.63;51.29;95673.59;1645186;87;21109;-65
2022/11/15 10:20:14;;;;;;;22.00;15.80;;;;;;;15.59;48.22;95670.63;1613054;87;21066;-66
2022/11/15 10:22:51;;;;;;;10.60;8.23;;;;;;;15.63;47.18;95666.94;1645815;87;21010;-66
2022/11/15 10:25:31;;;;;;;20.17;16.07;;;;;;;15.75;46.75;95664.33;1645724;87;21485;-66
2022/11/15 10:28:03;;;;;;;35.10;22.10;;;;;;;16.01;48.00;95656.20;1645920;87;21054;-65
2022/11/15 10:30:40;;;;;;;18.17;13.03;;;;;;;16.09;45.68;95659.89;1646075;87;21549;-66
2022/11/15 10:33:35;;;;;;;18.67;13.18;;;;;;;16.39;46.71;95647.15;1645931;86;21066;-66
2022/11/15 10:36:17;;;;;;;18.05;13.70;;;;;;;16.53;44.70;95643.05;1645401;87;21536;-66
2022/11/15 10:38:52;;;;;;;14.85;10.05;;;;;;;16.79;45.50;95637.55;1646127;87;21042;-65
2022/11/15 10:41:35;;;;;;;12.63;11.25;;;;;;;17.06;45.51;95631.98;1642978;87;21082;-66
2022/11/15 10:44:20;;;;;;;15.72;13.32;;;;;;;17.21;43.14;95635.75;1645944;87;21525;-66
2022/11/15 10:47:02;;;;;;;12.07;8.53;;;;;;;17.42;43.91;95621.47;1646024;87;21045;-65
2022/11/15 10:49:32;;;;;;;12.82;8.95;;;;;;;17.89;45.07;95621.13;1645955;86;21121;-65
2022/11/15 10:52:24;;;;;;;11.78;7.08;;;;;;;18.30;45.07;95615.61;1646148;87;21013;-65
2022/11/15 10:54:58;;;;;;;9.93;7.42;;;;;;;18.50;42.76;95611.97;1643261;87;21054;-66
2022/11/15 10:57:39;;;;;;;10.85;7.05;;;;;;;18.66;41.89;95606.71;1644972;86;21027;-66
2022/11/15 11:00:20;;;;;;;7.83;6.92;;;;;;;19.02;40.81;95608.03;1646025;87;21030;-66
2022/11/15 11:02:58;;;;;;;7.70;6.83;;;;;;;19.32;40.96;95598.47;1646098;87;21531;-66
2022/11/15 11:05:36;;;;;;;8.10;6.83;;;;;;;19.48;39.63;95598.06;1666114;86;21054;-66
2022/11/15 11:08:17;;;;;;;9.30;7.20;;;;;;;19.62;38.75;95592.80;1646018;87;21516;-66
2022/11/15 11:10:57;;;;;;;7.75;6.80;;;;;;;19.73;39.01;95590.05;1646259;87;21072;-66
2022/11/15 11:13:28;;;;;;;7.78;6.87;;;;;;;19.85;39.36;95584.88;1646182;86;21061;-66
2022/11/15 11:16:18;;;;;;;7.62;6.60;;;;;;;19.99;37.29;95576.58;1621874;87;21556;-66
2022/11/15 11:19:17;;;;;;;8.63;6.55;;;;;;;20.17;37.54;95572.84;1646373;87;21571;-66
2022/11/15 11:22:04;;;;;;;9.13;6.65;;;;;;;20.49;38.50;95571.49;1646108;87;21046;-66
2022/11/15 11:24:57;;;;;;;11.28;6.62;;;;;;;20.69;37.46;95565.86;1646086;87;21575;-65
2022/11/15 11:27:47;;;;;;;7.80;6.53;;;;;;;20.85;36.13;95563.60;1646185;87;21572;-66
2022/11/15 11:30:56;;;;;;;10.82;6.53;;;;;;;21.10;36.12;95567.02;1645667;87;21093;-66
2022/11/15 11:33:40;;;;;;;11.08;9.88;;;;;;;21.44;36.10;95569.84;1646073;87;21050;-65
2022/11/15 11:36:24;;;;;;;7.95;7.15;;;;;;;21.43;33.95;95563.25;1645685;87;21042;-66
2022/11/15 11:38:56;;;;;;;7.40;6.70;;;;;;;21.13;35.35;95554.27;1636501;87;21038;-66
2022/11/15 11:41:48;;;;;;;9.00;5.60;;;;;;;21.38;35.70;95556.79;1646287;87;21074;-65
2022/11/15 11:44:29;;;;;;;10.10;6.90;;;;;;;21.03;34.05;95542.85;1646098;87;21082;-66
2022/11/15 11:47:25;;;;;;;15.48;11.88;;;;;;;20.38;35.40;95549.80;1639999;87;21137;-66
2022/11/15 11:49:56;;;;;;;10.90;7.65;;;;;;;19.71;36.81;95552.67;1646011;86;21058;-66
2022/11/15 11:52:39;;;;;;;14.95;7.67;;;;;;;20.08;36.58;95548.80;1646188;87;21045;-65
2022/11/15 11:55:37;;;;;;;11.00;7.37;;;;;;;20.42;36.36;95540.16;1646302;87;21544;-66
2022/11/15 11:58:21;;;;;;;10.75;8.10;;;;;;;20.66;34.73;95539.69;1645716;87;21120;-66
2022/11/15 12:00:53;;;;;;;10.00;7.67;;;;;;;20.73;34.43;95537.89;1646022;87;21596;-66
2022/11/15 12:03:51;;;;;;;12.03;6.97;;;;;;;20.68;36.20;95534.62;1646130;87;21082;-66
2022/11/15 12:06:43;;;;;;;9.28;7.12;;;;;;;20.60;35.39;95522.16;1646021;87;21014;-66
2022/11/15 12:09:18;;;;;;;11.90;7.35;;;;;;;20.59;35.72;95527.14;1646091;87;21042;-66
2022/11/15 12:12:02;;;;;;;7.75;6.85;;;;;;;20.53;35.19;95522.95;1620890;87;21061;-66
2022/11/15 12:14:54;;;;;;;10.08;7.05;;;;;;;20.61;34.62;95514.48;1646092;87;21516;-65
2022/11/15 12:17:31;;;;;;;8.55;7.10;;;;;;;20.69;34.46;95514.91;1645719;87;21050;-66
2022/11/15 12:20:00;;;;;;;7.72;6.95;;;;;;;20.81;34.72;95513.78;1647041;86;21074;-66
2022/11/15 12:22:47;;;;;;;8.73;7.30;;;;;;;20.67;34.59;95515.48;1648294;87;21082;-66
2022/11/15 12:25:30;;;;;;;9.65;7.42;;;;;;;20.65;34.63;95504.46;1648504;87;21057;-65
2022/11/15 12:28:16;;;;;;;;;;;;;;;20.69;35.19;95508.70;1650556;87;21010;-66
2022/11/15 12:30:56;;;;;;;9.10;7.05;;;;;;;20.79;34.33;95506.30;1648370;87;20138;-65
2022/11/15 12:33:41;;;;;;;11.83;8.83;;;;;;;20.71;34.30;95507.65;1648400;87;21532;-66
2022/11/15 12:36:40;;;;;;;35.43;23.70;;;;;;;20.53;35.33;95506.01;1648399;87;21042;-66
2022/11/15 12:39:10;;;;;;;24.20;18.55;;;;;;;20.34;34.78;95500.89;1647859;87;21022;-66
2022/11/15 12:41:40;;;;;;;22.45;17.50;;;;;;;20.21;35.49;95499.85;1648384;87;21082;-66
2022/11/15 12:44:15;;;;;;;14.07;10.28;;;;;;;20.05;35.60;95494.53;1648375;87;21101;-66
2022/11/15 12:46:50;;;;;;;20.27;14.73;;;;;;;20.38;36.50;95493.03;1644522;87;21065;-66
2022/11/15 12:49:31;;;;;;;30.40;24.50;;;;;;;20.73;35.63;95485.60;1648232;86;21586;-66
2022/11/15 12:52:03;;;;;;;22.80;18.80;;;;;;;20.85;34.61;95486.69;1648500;87;21508;-66
2022/11/15 12:54:44;;;;;;;27.87;21.60;;;;;;;20.86;34.74;95488.41;1648287;87;21540;-65
2022/11/15 12:57:30;;;;;;;15.10;11.83;;;;;;;20.71;33.49;95487.54;1648601;87;21030;-65
2022/11/15 13:00:01;;;;;;;17.37;13.13;;;;;;;20.26;37.08;95493.30;1647920;87;21125;-66
2022/11/15 13:02:34;;;;;;;27.35;20.65;;;;;;;19.46;37.27;95495.59;1648418;87;21062;-66
2022/11/15 13:05:36;;;;;;;23.32;20.57;;;;;;;18.74;38.73;95499.41;1648235;87;21058;-65
2022/11/15 13:08:03;;;;;;;23.90;17.82;;;;;;;18.39;40.46;95504.76;1648553;87;21529;-66
2022/11/15 13:10:33;;;;;;;20.43;15.55;;;;;;;18.51;39.30;95506.80;1648727;87;21038;-66
2022/11/15 13:13:09;;;;;;;21.65;16.23;;;;;;;18.28;39.29;95498.63;1648255;87;21029;-66
2022/11/15 13:15:58;;;;;;;15.98;12.07;;;;;;;17.94;40.99;95493.64;1622431;87;21181;-66
2022/11/15 13:18:31;;;;;;;16.97;11.12;;;;;;;17.44;42.93;95499.58;1648110;87;21018;-66